createdAt,value
2023-03-26T00:00:04.090Z,78.93
2023-03-26T00:04:19.765Z,78.53
2023-03-26T00:08:03.992Z,78.71
2023-03-26T00:11:46.516Z,78.70
2023-03-26T00:15:32.847Z,78.73
2023-03-26T00:19:06.904Z,78.48
2023-03-26T00:22:51.030Z,78.68
2023-03-26T00:26:35.129Z,78.72
2023-03-26T00:30:16.755Z,77.85
2023-03-26T00:33:58.026Z,77.86
2023-03-26T00:37:46.208Z,78.34
2023-03-26T00:41:25.513Z,77.92
2023-03-26T00:45:26.276Z,77.81
2023-03-26T00:48:47.254Z,77.93
2023-03-26T00:52:30.387Z,78.00
2023-03-26T00:56:14.929Z,78.10
2023-03-26T00:59:55.758Z,78.09
2023-03-26T01:03:40.091Z,78.28
2023-03-26T01:07:31.440Z,78.45
2023-03-26T01:11:14.245Z,78.98
2023-03-26T01:15:04.378Z,78.63
2023-03-26T01:18:40.564Z,78.78
2023-03-26T01:21:51.736Z,78.73
2023-03-26T01:25:39.415Z,78.95
2023-03-26T01:29:30.814Z,79.14
2023-03-26T01:33:33.908Z,78.73
2023-03-26T01:36:56.988Z,78.59
2023-03-26T01:40:42.883Z,78.59
2023-03-26T01:44:32.406Z,78.77
2023-03-26T01:48:15.708Z,78.61
2023-03-26T01:51:59.637Z,78.96
2023-03-26T01:55:50.619Z,79.03
2023-03-26T01:59:54.892Z,79.03
2023-03-26T02:03:28.842Z,79.15
2023-03-26T02:07:05.766Z,79.35
2023-03-26T02:10:27.415Z,79.42
2023-03-26T02:14:11.001Z,79.49
2023-03-26T02:17:55.339Z,79.16
2023-03-26T02:21:41.987Z,79.54
2023-03-26T02:25:16.353Z,79.62
2023-03-26T02:29:09.954Z,79.49
2023-03-26T02:32:38.897Z,79.64
2023-03-26T02:36:27.522Z,79.90
2023-03-26T02:40:12.706Z,79.92
2023-03-26T02:43:57.144Z,79.80
2023-03-26T02:47:46.126Z,80.07
2023-03-26T02:52:18.832Z,79.26
2023-03-26T02:55:46.060Z,79.44
2023-03-26T02:59:29.742Z,79.48
2023-03-26T03:03:32.940Z,79.76
2023-03-26T03:07:42.528Z,80.04
2023-03-26T03:11:05.500Z,79.82
2023-03-26T03:14:57.872Z,80.12
2023-03-26T03:18:09.281Z,80.39
2023-03-26T03:21:52.172Z,79.86
2023-03-26T03:25:35.875Z,80.08
2023-03-26T03:29:18.569Z,79.81
2023-03-26T03:33:09.885Z,80.08
2023-03-26T03:36:39.650Z,80.09
2023-03-26T03:40:38.698Z,79.92
2023-03-26T03:44:06.487Z,79.65
2023-03-26T03:47:49.630Z,79.76
2023-03-26T03:51:36.625Z,79.78
2023-03-26T03:55:30.066Z,79.65
2023-03-26T03:59:21.144Z,79.17
2023-03-26T04:02:50.872Z,78.95
2023-03-26T04:06:33.934Z,79.36
2023-03-26T04:10:31.503Z,78.97
2023-03-26T04:13:53.315Z,79.12
2023-03-26T04:17:48.114Z,78.64
2023-03-26T04:21:32.548Z,78.86
2023-03-26T04:25:30.504Z,78.66
2023-03-26T04:29:04.986Z,78.98
2023-03-26T04:32:43.044Z,78.72
2023-03-26T04:36:10.376Z,79.07
2023-03-26T04:39:52.693Z,79.15
2023-03-26T04:44:04.577Z,79.26
2023-03-26T04:48:03.605Z,79.08
2023-03-26T04:51:48.188Z,79.05
2023-03-26T04:55:58.894Z,79.06
2023-03-26T05:00:15.139Z,78.80
2023-03-26T05:04:15.201Z,78.68
2023-03-26T05:07:36.303Z,78.41
2023-03-26T05:11:17.958Z,78.03
2023-03-26T05:15:11.902Z,78.23
2023-03-26T05:18:36.579Z,78.62
2023-03-26T05:22:38.269Z,78.45
2023-03-26T05:25:55.559Z,78.12
2023-03-26T05:29:40.082Z,77.97
2023-03-26T05:33:33.175Z,77.70
2023-03-26T05:37:09.326Z,77.61
2023-03-26T05:40:38.372Z,77.54
2023-03-26T05:44:32.474Z,77.11
2023-03-26T05:47:58.174Z,77.02
2023-03-26T05:51:41.682Z,76.79
2023-03-26T05:55:40.707Z,76.73
2023-03-26T05:59:59.348Z,76.08
2023-03-26T06:03:23.362Z,76.11
2023-03-26T06:07:44.679Z,76.17
2023-03-26T06:11:08.157Z,76.00
2023-03-26T06:14:54.648Z,75.65
2023-03-26T06:19:02.930Z,75.53
2023-03-26T06:22:30.534Z,75.09
2023-03-26T06:26:52.772Z,74.91
2023-03-26T06:30:20.476Z,74.62
2023-03-26T06:34:13.483Z,74.18
2023-03-26T06:37:55.505Z,74.40
2023-03-26T06:41:39.570Z,74.68
2023-03-26T06:45:54.320Z,75.30
2023-03-26T06:49:57.930Z,76.81
2023-03-26T06:54:06.013Z,76.91
2023-03-26T06:57:26.823Z,77.44
2023-03-26T07:01:33.806Z,77.80
2023-03-26T07:05:09.399Z,78.15
2023-03-26T07:09:10.908Z,77.93
2023-03-26T07:13:28.832Z,78.33
2023-03-26T07:16:49.838Z,78.58
2023-03-26T07:20:52.020Z,78.93
2023-03-26T07:24:47.930Z,78.66
2023-03-26T07:28:20.523Z,78.66
2023-03-26T07:32:28.597Z,78.93
2023-03-26T07:35:59.146Z,78.23
2023-03-26T07:40:02.524Z,78.23
2023-03-26T07:44:03.645Z,77.79
2023-03-26T07:47:57.243Z,77.34
2023-03-26T07:51:50.878Z,76.90
2023-03-26T07:56:05.787Z,75.63
2023-03-26T08:00:22.335Z,74.99
2023-03-26T08:04:00.795Z,73.56
2023-03-26T08:08:25.545Z,72.89
2023-03-26T08:12:47.811Z,72.26
2023-03-26T08:16:35.758Z,72.63
2023-03-26T08:20:28.454Z,72.25
2023-03-26T08:24:12.861Z,71.75
2023-03-26T08:28:08.603Z,72.19
2023-03-26T08:31:52.009Z,70.99
2023-03-26T08:35:51.490Z,70.78
2023-03-26T08:39:14.297Z,70.20
2023-03-26T08:43:40.914Z,69.96
2023-03-26T08:47:07.016Z,70.64
2023-03-26T08:51:16.076Z,70.72
2023-03-26T08:55:15.555Z,71.27
2023-03-26T09:00:11.789Z,71.21
2023-03-26T09:03:07.829Z,70.56
2023-03-26T09:07:48.457Z,69.85
2023-03-26T09:10:56.277Z,68.92
2023-03-26T09:15:27.903Z,68.26
2023-03-26T09:18:44.018Z,67.64
2023-03-26T09:23:08.655Z,67.20
2023-03-26T09:26:27.968Z,66.06
2023-03-26T09:30:53.508Z,64.97
2023-03-26T09:34:29.326Z,64.05
2023-03-26T09:37:36.500Z,63.58
2023-03-26T09:41:45.307Z,62.94
2023-03-26T09:46:00.583Z,62.79
2023-03-26T09:49:30.994Z,62.45
2023-03-26T09:53:05.257Z,62.26
2023-03-26T09:57:02.945Z,61.26
2023-03-26T10:00:31.062Z,61.83
2023-03-26T10:04:47.766Z,61.68
2023-03-26T10:08:32.635Z,61.65
2023-03-26T10:11:37.524Z,61.18
2023-03-26T10:15:37.212Z,62.00
2023-03-26T10:19:25.365Z,62.47
2023-03-26T10:23:52.234Z,62.75
2023-03-26T10:27:09.364Z,62.60
2023-03-26T10:31:28.210Z,61.23
2023-03-26T10:34:52.200Z,63.17
2023-03-26T10:39:36.871Z,65.90
2023-03-26T10:42:58.467Z,66.22
2023-03-26T10:46:57.899Z,65.99
2023-03-26T10:50:03.013Z,65.65
2023-03-26T10:53:55.729Z,65.07
2023-03-26T10:57:31.313Z,63.80
2023-03-26T11:01:19.670Z,63.53
2023-03-26T11:05:20.101Z,63.36
2023-03-26T11:09:13.567Z,63.16
2023-03-26T11:13:12.408Z,62.40
2023-03-26T11:17:39.190Z,64.02
2023-03-26T11:21:19.040Z,64.97
2023-03-26T11:24:31.669Z,65.14
2023-03-26T11:29:03.869Z,65.34
2023-03-26T11:32:16.719Z,65.55
2023-03-26T11:35:40.748Z,65.32
2023-03-26T11:39:56.718Z,64.55
2023-03-26T11:43:03.919Z,64.55
2023-03-26T11:47:11.543Z,63.81
2023-03-26T11:50:30.527Z,63.00
2023-03-26T11:54:15.152Z,62.43
2023-03-26T11:57:39.479Z,60.23
2023-03-26T12:01:30.363Z,57.63
2023-03-26T12:05:35.945Z,56.72
2023-03-26T12:08:51.639Z,56.04
2023-03-26T12:12:38.199Z,55.89
2023-03-26T12:16:20.837Z,54.99
2023-03-26T12:20:32.311Z,55.19
2023-03-26T12:24:01.132Z,54.96
2023-03-26T12:27:28.582Z,54.65
2023-03-26T12:31:29.850Z,54.33
2023-03-26T12:34:48.307Z,52.45
2023-03-26T12:39:16.526Z,52.58
2023-03-26T12:44:47.973Z,51.63
2023-03-26T12:47:56.075Z,51.59
2023-03-26T12:51:01.786Z,52.89
2023-03-26T12:54:44.144Z,53.07
2023-03-26T12:57:56.622Z,53.47
2023-03-26T13:01:58.705Z,54.60
2023-03-26T13:05:41.479Z,56.81
2023-03-26T13:09:19.803Z,58.27
2023-03-26T13:13:17.940Z,60.41
2023-03-26T13:17:25.994Z,61.63
2023-03-26T13:20:57.596Z,62.83
2023-03-26T13:24:38.524Z,64.78
2023-03-26T13:28:01.247Z,66.49
2023-03-26T13:32:15.096Z,66.69
2023-03-26T13:35:43.502Z,67.30
2023-03-26T13:39:08.179Z,68.84
2023-03-26T13:42:58.959Z,68.40
2023-03-26T13:46:44.460Z,68.27
2023-03-26T13:50:40.072Z,66.90
2023-03-26T13:54:25.908Z,66.55
2023-03-26T13:57:44.314Z,67.09
2023-03-26T14:01:50.988Z,67.32
2023-03-26T14:05:10.207Z,66.99
2023-03-26T14:09:06.765Z,66.00
2023-03-26T14:12:43.560Z,65.65
2023-03-26T14:16:39.896Z,64.02
2023-03-26T14:20:56.256Z,63.12
2023-03-26T14:24:24.815Z,62.68
2023-03-26T14:27:46.339Z,60.69
2023-03-26T14:31:25.257Z,58.95
2023-03-26T14:35:08.848Z,59.02
2023-03-26T14:39:24.531Z,58.79
2023-03-26T14:42:13.574Z,56.94
2023-03-26T14:46:25.956Z,56.34
2023-03-26T14:49:59.304Z,56.27
2023-03-26T14:54:00.746Z,57.41
2023-03-26T14:58:04.600Z,57.36
2023-03-26T15:01:54.183Z,56.64
2023-03-26T15:06:32.944Z,57.41
2023-03-26T15:09:56.469Z,57.40
2023-03-26T15:13:02.184Z,57.90
2023-03-26T15:17:38.365Z,56.80
2023-03-26T15:20:42.341Z,55.77
2023-03-26T15:25:08.737Z,55.47
2023-03-26T15:28:25.481Z,55.73
2023-03-26T15:32:49.045Z,55.44
2023-03-26T15:36:50.201Z,55.85
2023-03-26T15:40:08.470Z,55.50
2023-03-26T15:43:20.211Z,56.30
2023-03-26T15:47:40.400Z,56.55
2023-03-26T15:50:53.608Z,55.89
2023-03-26T15:54:37.220Z,55.47
2023-03-26T15:58:00.890Z,55.99
2023-03-26T16:01:45.049Z,56.36
2023-03-26T16:05:03.297Z,56.78
2023-03-26T16:08:57.159Z,57.35
2023-03-26T16:13:14.720Z,57.32
2023-03-26T16:16:52.124Z,57.35
2023-03-26T16:19:53.478Z,57.77
2023-03-26T16:23:55.602Z,58.54
2023-03-26T16:27:34.519Z,59.15
2023-03-26T16:31:37.064Z,59.55
2023-03-26T16:35:46.501Z,59.63
2023-03-26T16:39:41.816Z,60.26
2023-03-26T16:43:46.827Z,60.55
2023-03-26T16:47:09.136Z,61.19
2023-03-26T16:50:56.643Z,61.37
2023-03-26T16:54:52.794Z,61.59
2023-03-26T16:58:28.096Z,61.72
2023-03-26T17:02:21.718Z,61.78
2023-03-26T17:06:13.999Z,62.25
2023-03-26T17:10:04.143Z,62.85
2023-03-26T17:14:24.613Z,63.10
2023-03-26T17:17:42.682Z,63.49
2023-03-26T17:21:46.121Z,63.84
2023-03-26T17:25:34.606Z,64.37
2023-03-26T17:29:36.349Z,64.46
2023-03-26T17:33:34.865Z,64.39
2023-03-26T17:37:00.972Z,65.06
2023-03-26T17:40:55.743Z,65.25
2023-03-26T17:44:52.324Z,65.54
2023-03-26T17:48:39.336Z,66.32
2023-03-26T17:52:25.373Z,66.09
2023-03-26T17:56:35.054Z,66.28
2023-03-26T18:00:19.710Z,66.60
2023-03-26T18:03:30.831Z,66.27
2023-03-26T18:07:36.460Z,67.09
2023-03-26T18:11:52.278Z,67.47
2023-03-26T18:15:52.136Z,68.10
2023-03-26T18:19:31.528Z,68.26
2023-03-26T18:22:51.787Z,67.97
2023-03-26T18:26:53.900Z,68.53
2023-03-26T18:30:20.511Z,68.42
2023-03-26T18:34:13.737Z,69.03
2023-03-26T18:38:16.806Z,69.24
2023-03-26T18:41:50.901Z,69.49
2023-03-26T18:45:28.028Z,69.70
2023-03-26T18:48:48.982Z,69.65
2023-03-26T18:52:50.931Z,69.80
2023-03-26T18:56:33.222Z,70.02
2023-03-26T19:00:23.432Z,70.52
2023-03-26T19:04:24.501Z,70.47
2023-03-26T19:07:44.193Z,71.03
2023-03-26T19:11:27.764Z,70.78
2023-03-26T19:15:20.183Z,70.98
2023-03-26T19:19:03.488Z,71.37
2023-03-26T19:22:44.506Z,71.39
2023-03-26T19:26:04.554Z,71.35
2023-03-26T19:30:27.759Z,71.36
2023-03-26T19:33:39.345Z,71.57
2023-03-26T19:37:24.723Z,71.76
2023-03-26T19:40:44.897Z,71.94
2023-03-26T19:44:41.303Z,72.31
2023-03-26T19:48:19.768Z,72.21
2023-03-26T19:51:41.619Z,72.66
2023-03-26T19:55:25.278Z,72.55
2023-03-26T19:59:08.210Z,72.65
2023-03-26T20:03:06.811Z,73.08
2023-03-26T20:06:42.423Z,73.06
2023-03-26T20:10:34.241Z,73.51
2023-03-26T20:14:02.563Z,73.38
2023-03-26T20:17:44.861Z,73.71
2023-03-26T20:21:26.155Z,73.72
2023-03-26T20:25:20.399Z,73.72
2023-03-26T20:29:04.816Z,74.17
2023-03-26T20:32:46.827Z,74.25
2023-03-26T20:36:33.669Z,74.34
2023-03-26T20:40:21.848Z,74.44
2023-03-26T20:44:05.935Z,74.49
2023-03-26T20:47:51.047Z,74.61
2023-03-26T20:51:33.879Z,75.04
2023-03-26T20:55:17.504Z,75.16
2023-03-26T20:59:10.609Z,75.33
2023-03-26T21:02:55.249Z,75.66
2023-03-26T21:07:07.020Z,75.77
2023-03-26T21:10:19.422Z,75.96
2023-03-26T21:14:05.251Z,75.96
2023-03-26T21:18:10.351Z,75.76
2023-03-26T21:21:50.032Z,75.70
2023-03-26T21:25:29.739Z,75.50
2023-03-26T21:28:57.620Z,75.25
2023-03-26T21:32:31.775Z,75.72
2023-03-26T21:36:15.326Z,75.58
2023-03-26T21:39:45.023Z,75.47
2023-03-26T21:43:16.703Z,75.66
2023-03-26T21:46:51.166Z,75.84
2023-03-26T21:50:50.882Z,76.18
2023-03-26T21:54:30.954Z,76.29
2023-03-26T21:58:00.847Z,76.17
2023-03-26T22:01:51.261Z,76.19
2023-03-26T22:05:41.323Z,76.13
2023-03-26T22:09:35.611Z,76.13
2023-03-26T22:13:46.342Z,76.28
2023-03-26T22:16:55.484Z,76.01
2023-03-26T22:20:48.915Z,76.37
2023-03-26T22:24:33.701Z,76.37
2023-03-26T22:28:10.511Z,76.55
2023-03-26T22:31:48.352Z,76.26
2023-03-26T22:35:10.459Z,76.22
2023-03-26T22:38:56.734Z,76.17
2023-03-26T22:42:49.347Z,76.49
2023-03-26T22:46:17.601Z,76.35
2023-03-26T22:50:16.241Z,76.28
2023-03-26T22:53:56.400Z,76.55
2023-03-26T22:57:25.866Z,76.66
2023-03-26T23:01:08.397Z,76.55
2023-03-26T23:04:32.428Z,76.43
2023-03-26T23:08:25.997Z,76.84
2023-03-26T23:12:09.271Z,76.69
2023-03-26T23:15:30.625Z,76.75
2023-03-26T23:19:14.880Z,76.68
2023-03-26T23:22:59.015Z,76.84
2023-03-26T23:26:50.785Z,76.93
2023-03-26T23:30:34.149Z,77.12
2023-03-26T23:34:33.807Z,77.09
2023-03-26T23:37:55.957Z,77.09
2023-03-26T23:41:39.850Z,76.99
2023-03-26T23:45:39.970Z,77.19
2023-03-26T23:49:16.060Z,77.26
2023-03-26T23:52:38.927Z,77.25
2023-03-26T23:56:21.638Z,77.07
